METAR UND TAF INFORMATION
METAR FOR EDJA
ADDS - METARS form results

(1628 UTC 19 December 2018)
Data provider http://aviationweather.gov/metar/data/
 
METAR text: EDJA 191620Z 01004KT 320V060 9999 FEW011 BKN062 03/01 Q1014
Conditions at: EDJA (MEMMINGEN ALLGAU, DE) observed 1620 UTC 19 December 2018
Temperature: 3.0°C (37°F)
Dewpoint: 1.0°C (34°F) [RH = 87%]
Pressure (altimeter): 29.94 inches Hg (1014.0 mb)
Winds: from the N (10 degrees) at 5 MPH (4 knots; 2.1 m/s)
Visibility: 6 or more miles (10+ km)
Ceiling: 6200 feet AGL
Clouds: few clouds at 1100 feet AGL
broken clouds at 6200 feet AGL
Weather: no significant weather observed at this time

METAR text: EDJA 191550Z 07004KT 9999 FEW031 BKN061 02/01 Q1014
Conditions at: EDJA (MEMMINGEN ALLGAU, DE) observed 1550 UTC 19 December 2018
Temperature: 2.0°C (36°F)
Dewpoint: 1.0°C (34°F) [RH = 93%]
Pressure (altimeter): 29.94 inches Hg (1014.0 mb)
Winds: from the ENE (70 degrees) at 5 MPH (4 knots; 2.1 m/s)
Visibility: 6 or more miles (10+ km)
Ceiling: 6100 feet AGL
Clouds: few clouds at 3100 feet AGL
broken clouds at 6100 feet AGL
Weather: no significant weather observed at this time

Forecast for: EDJA (MEMMINGEN ALLGAU, DE)
Text: TAF EDJA 191400Z 1915/1924 20005KT 9999 BKN040
Forecast period: 1500 UTC 19 December 2018 to 0000 UTC 20 December 2018
Forecast type: FROM: standard forecast or significant change
Winds: from the SSW (200 degrees) at 6 MPH (5 knots; 2.6 m/s)
Visibility: 6 or more miles 10+ km)
Ceiling: 4000 feet AGL
Clouds: broken clouds at 4000 feet AGL
Weather: no significant weather forecast for this period
Text: PROB30
Forecast period: 1800 UTC 19 December 2018 to 0000 UTC 20 December 2018
Forecast type: TEMPORARY: The following changes expected for less than half the time period
Visibility: 2.49 miles (4.01 km)
Ceiling: unknown
Clouds: missing
Weather: RA DZ  (moderate rain, moderate drizzle)
Text: TEMPO 1918/1924 4000 RADZ
Forecast period: 2000 UTC 19 December 2018 to 0000 UTC 20 December 2018
Forecast type: TEMPORARY: The following changes expected for less than half the time period
Visibility: missing
Ceiling: 1200 feet AGL
Clouds: broken clouds at 1200 feet AGL
Weather: no significant weather forecast for this period

 FLUGHAFENKARTE

 RUNWAY INFORMATION
Runway 06 Runway length 9780 ft Runway width 98 ft
Runway elevation 2077 ft Runway displaced threshold 953 ft Runway heading 59
Runway 24 Runway length 9780 ft Runway width 98 ft
Runway elevation 2077 ft Runway displaced threshold 953 ft Runway heading 239

 AIRPORT FREQUENCIES
Type AFIS Name MUNCHEN IN Frequency 126.95 MHZ
Type INFO Name INFO Frequency 135.6 MHZ

 AIRPORT NEAR NAVIGATION AIDS



Version 3.0.1 EDV-Wallbrecher

Powered by EDV-Wallbrecher | Virtual Airlines Manager